Time;durP1;ratioP1;P1;durP2;ratioP2;P2;SDS_P1;SDS_P2;PMS_P1;PMS_P2;Temp;Humidity;BMP_temperature;BMP_pressure;BME280_temperature;BME280_humidity;BME280_pressure;Samples;Min_cycle;Max_cycle;Signal;HPM_P1;HPM_P2
2021/12/15 11:22:49;;;;;;;60.23;30.37;;;;;;;-1.22;95.34;99026.73;1826954;78;20915;-59
2021/12/15 11:25:46;;;;;;;40.90;24.75;;;;;;;-1.19;95.40;99025.05;1826982;78;21163;-59
2021/12/15 11:28:34;;;;;;;50.63;25.68;;;;;;;-1.13;95.32;99019.05;1820661;78;21574;-63
2021/12/15 11:31:10;;;;;;;46.42;25.60;;;;;;;-1.07;95.38;99013.02;1812650;77;21018;-63
2021/12/15 11:33:48;;;;;;;41.53;24.60;;;;;;;-1.00;95.15;99015.19;1825077;77;21546;-61
2021/12/15 11:36:25;;;;;;;48.75;28.65;;;;;;;-0.92;95.02;99009.80;1795342;80;20979;-61
2021/12/15 11:38:57;;;;;;;43.52;25.23;;;;;;;-0.82;95.17;99008.92;1803924;77;21168;-59
2021/12/15 11:41:36;;;;;;;40.88;23.92;;;;;;;-0.72;95.06;99005.45;1823553;77;20959;-60
2021/12/15 11:44:12;;;;;;;47.93;23.80;;;;;;;-0.65;94.78;99006.30;1818511;79;21533;-63
2021/12/15 11:46:45;;;;;;;42.90;23.55;;;;;;;-0.62;94.54;99007.73;1827109;78;20903;-61
2021/12/15 11:49:24;;;;;;;42.40;23.20;;;;;;;-0.58;94.39;99006.34;1828404;77;21425;-63
2021/12/15 11:52:02;;;;;;;50.98;25.95;;;;;;;-0.57;94.16;98999.58;1808604;78;21107;-61
2021/12/15 11:54:38;;;;;;;47.85;26.97;;;;;;;-0.59;93.96;99000.28;1822498;78;20864;-61
2021/12/15 11:57:24;;;;;;;44.83;25.80;;;;;;;-0.55;94.02;99002.00;1827683;78;20921;-59
2021/12/15 11:59:53;;;;;;;;;;;;;;;-0.54;93.88;99004.43;1823760;78;21017;-60
2021/12/15 12:02:23;;;;;;;44.30;24.92;;;;;;;-0.53;93.80;99005.25;1821166;78;20148;-60
2021/12/15 12:05:02;;;;;;;43.30;24.85;;;;;;;-0.55;93.68;98998.88;1821036;78;21063;-64
2021/12/15 12:07:33;;;;;;;39.27;22.82;;;;;;;-0.55;93.69;98998.88;1819860;78;20869;-60
2021/12/15 12:10:11;;;;;;;46.35;23.95;;;;;;;-0.51;93.60;98997.97;1820999;78;20922;-59
2021/12/15 12:12:50;;;;;;;46.33;23.83;;;;;;;-0.51;93.38;99004.05;1820748;78;20930;-59
2021/12/15 12:15:13;;;;;;;39.58;24.05;;;;;;;-0.55;93.33;99001.51;1819746;78;20891;-60
2021/12/15 12:17:45;;;;;;;40.40;23.20;;;;;;;-0.57;93.27;98996.13;1819490;78;21717;-58
2021/12/15 12:20:16;;;;;;;36.90;21.93;;;;;;;-0.57;93.14;99000.08;1809317;79;21021;-59
2021/12/15 12:22:46;;;;;;;38.80;21.73;;;;;;;-0.60;93.25;99003.91;1809152;79;21447;-62
2021/12/15 12:25:20;;;;;;;38.10;23.60;;;;;;;-0.57;93.35;98996.95;1810018;79;20997;-59
2021/12/15 12:27:47;;;;;;;44.45;21.93;;;;;;;-0.54;93.27;98999.70;1808633;79;21494;-63
2021/12/15 12:30:18;;;;;;;38.65;21.48;;;;;;;-0.53;93.22;99002.13;1809245;79;21058;-61
2021/12/15 12:32:46;;;;;;;33.83;21.45;;;;;;;-0.53;92.82;98999.48;1809009;79;20931;-60
2021/12/15 12:35:15;;;;;;;33.38;21.23;;;;;;;-0.55;92.90;98999.38;1809149;79;20923;-64
2021/12/15 12:37:42;;;;;;;36.25;21.40;;;;;;;-0.56;92.76;98999.88;1787147;79;21544;-59
2021/12/15 12:40:25;;;;;;;34.38;21.85;;;;;;;-0.58;92.83;98999.75;1811490;77;20861;-63
2021/12/15 12:42:53;;;;;;;38.40;22.93;;;;;;;-0.60;92.91;99006.54;1789320;79;21478;-61
2021/12/15 12:45:38;;;;;;;40.17;23.62;;;;;;;-0.63;92.96;99006.92;1761999;81;21525;-60
2021/12/15 12:59:46;;;;;;;36.15;21.55;;;;;;;-0.85;93.75;99005.39;1755227;81;20854;-63
2021/12/15 13:02:47;;;;;;;36.08;21.97;;;;;;;-0.84;94.03;99012.26;1768133;80;20956;-64
2021/12/15 13:05:38;;;;;;;36.17;23.32;;;;;;;-0.84;94.06;99008.31;1759681;80;21015;-61
2021/12/15 13:08:15;;;;;;;36.68;22.30;;;;;;;-0.81;94.21;99011.38;1768831;80;21352;-60
2021/12/15 13:10:55;;;;;;;37.78;22.87;;;;;;;-0.78;94.19;99016.23;1762705;80;21087;-59
2021/12/15 13:13:51;;;;;;;35.50;22.20;;;;;;;-0.76;94.26;99016.06;1761388;81;21040;-58
2021/12/15 13:16:35;;;;;;;37.83;21.60;;;;;;;-0.77;94.32;99023.14;1758878;81;21015;-61
2021/12/15 13:19:16;;;;;;;33.10;21.85;;;;;;;-0.75;94.44;99026.88;1761635;81;21113;-59
2021/12/15 13:22:20;;;;;;;30.77;20.23;;;;;;;-0.74;94.38;99020.63;1761041;79;21113;-58
2021/12/15 13:31:09;;;;;;;36.28;21.93;;;;;;;-0.65;94.38;99023.41;1759988;80;21463;-60
2021/12/15 13:33:43;;;;;;;32.73;21.20;;;;;;;-0.65;94.29;99026.04;1759593;81;20923;-62
2021/12/15 13:36:28;;;;;;;34.40;21.90;;;;;;;-0.64;94.30;99017.65;1760382;81;20900;-59
2021/12/15 13:39:10;;;;;;;32.93;21.27;;;;;;;-0.63;94.34;99019.25;1761055;81;21051;-60
2021/12/15 13:42:14;;;;;;;32.15;22.75;;;;;;;-0.65;94.38;99022.59;1760314;81;20923;-58
2021/12/15 13:44:39;;;;;;;33.98;21.23;;;;;;;-0.63;94.41;99025.84;1756320;81;21490;-59
2021/12/15 13:47:16;;;;;;;39.78;22.90;;;;;;;-0.62;94.40;99021.72;1760758;79;20938;-57
2021/12/15 13:49:56;;;;;;;41.30;24.70;;;;;;;-0.60;94.42;99018.87;1819716;78;20894;-58
2021/12/15 13:52:39;;;;;;;39.92;22.93;;;;;;;-0.64;94.46;99017.16;1810071;78;21125;-58
2021/12/15 13:55:26;;;;;;;38.15;23.65;;;;;;;-0.65;94.58;99023.91;1809311;78;20918;-59
2021/12/15 13:58:14;;;;;;;38.75;23.57;;;;;;;-0.64;94.67;99026.36;1811448;78;20977;-60
2021/12/15 14:00:55;;;;;;;56.55;35.00;;;;;;;-0.63;94.71;99026.66;1807681;78;21068;-64
2021/12/15 14:03:36;;;;;;;45.80;27.02;;;;;;;-0.63;94.78;99025.34;1807593;78;20936;-57
2021/12/15 14:06:13;;;;;;;42.62;26.75;;;;;;;-0.65;94.79;99027.36;1805569;78;21156;-60
2021/12/15 14:08:53;;;;;;;44.67;25.62;;;;;;;-0.65;94.79;99023.91;1806342;78;21655;-61
2021/12/15 14:11:32;;;;;;;42.38;26.33;;;;;;;-0.66;94.93;99026.24;1807574;78;21029;-60
2021/12/15 14:14:09;;;;;;;44.42;27.30;;;;;;;-0.67;95.02;99029.38;1807310;78;20994;-59
2021/12/15 14:16:45;;;;;;;45.58;26.73;;;;;;;-0.70;95.24;99030.56;1803656;77;21025;-62
2021/12/15 14:19:16;;;;;;;47.10;26.33;;;;;;;-0.70;95.30;99035.02;1812549;78;21637;-60
2021/12/15 14:21:46;;;;;;;46.63;26.85;;;;;;;-0.68;95.43;99037.47;1812147;77;20952;-62
2021/12/15 14:24:12;;;;;;;46.35;26.27;;;;;;;-0.68;95.59;99034.31;1818071;77;21090;-58
2021/12/15 14:26:39;;;;;;;43.95;27.65;;;;;;;-0.67;95.66;99039.90;1813330;77;20970;-61
2021/12/15 14:29:10;;;;;;;46.50;26.80;;;;;;;-0.67;95.80;99040.39;1814578;78;20880;-62
2021/12/15 14:31:41;;;;;;;44.98;27.55;;;;;;;-0.68;96.00;99040.89;1818018;78;21190;-60
2021/12/15 14:34:15;;;;;;;44.83;27.60;;;;;;;-0.67;96.07;99036.45;1797010;79;21067;-62
2021/12/15 14:36:46;;;;;;;47.73;27.48;;;;;;;-0.65;96.24;99036.56;1769026;80;20928;-59
2021/12/15 14:39:22;;;;;;;48.90;29.12;;;;;;;-0.62;96.42;99036.19;1795911;78;20986;-61
2021/12/15 14:41:56;;;;;;;52.43;28.17;;;;;;;-0.60;96.34;99042.06;1789448;78;20875;-63
2021/12/15 14:44:26;;;;;;;45.43;27.37;;;;;;;-0.57;96.40;99042.19;1790749;79;21126;-60
2021/12/15 14:46:59;;;;;;;48.48;27.60;;;;;;;-0.57;96.49;99050.89;1815577;78;20996;-58
2021/12/15 14:49:42;;;;;;;51.53;30.30;;;;;;;-0.56;96.63;99051.19;1823823;78;20943;-61
